Time;durP1;ratioP1;P1;durP2;ratioP2;P2;SDS_P1;SDS_P2;PMS_P1;PMS_P2;Temp;Humidity;BMP_temperature;BMP_pressure;BME280_temperature;BME280_humidity;BME280_pressure;Samples;Min_cycle;Max_cycle;Signal;HPM_P1;HPM_P2
2022/05/20 00:02:12;;;;;;;6.20;3.95;;;;;;;19.87;86.23;97233.50;5016481;28;20195;-68
2022/05/20 00:04:38;;;;;;;6.13;4.05;;;;;;;19.94;85.32;97239.34;5015957;28;20188;-69
2022/05/20 00:07:04;;;;;;;4.80;4.25;;;;;;;19.84;85.85;97232.19;5016158;28;20241;-69
2022/05/20 00:09:30;;;;;;;4.28;3.88;;;;;;;19.86;85.66;97235.38;5015613;28;20670;-69
2022/05/20 00:11:55;;;;;;;4.97;4.47;;;;;;;19.81;85.52;97216.78;5015990;28;20203;-69
2022/05/20 00:14:21;;;;;;;6.18;4.45;;;;;;;19.95;84.96;97226.84;5016080;28;20647;-68
2022/05/20 00:16:46;;;;;;;7.25;4.57;;;;;;;19.84;85.08;97221.53;5015619;28;20184;-69
2022/05/20 00:19:12;;;;;;;4.70;4.22;;;;;;;19.75;85.64;97223.19;5016076;28;20306;-68
2022/05/20 00:21:38;;;;;;;5.07;4.25;;;;;;;19.80;85.76;97219.72;5015812;28;20191;-69
2022/05/20 00:24:04;;;;;;;5.03;4.25;;;;;;;19.79;85.13;97218.91;5015716;28;20187;-69
2022/05/20 00:26:29;;;;;;;5.80;4.03;;;;;;;19.83;84.93;97216.53;5010461;28;20187;-68
2022/05/20 00:28:55;;;;;;;5.15;4.30;;;;;;;19.72;85.51;97217.66;5015933;28;20191;-69
2022/05/20 00:31:26;;;;;;;5.55;4.10;;;;;;;19.82;84.78;97217.59;5015799;28;20210;-69
2022/05/20 00:33:51;;;;;;;4.32;4.00;;;;;;;19.89;83.94;97212.75;5015920;28;20178;-67
2022/05/20 00:36:17;;;;;;;4.65;4.25;;;;;;;19.94;83.60;97210.06;5015916;28;20628;-67
2022/05/20 00:38:43;;;;;;;4.47;4.13;;;;;;;20.01;82.95;97215.06;5015680;28;20179;-67
2022/05/20 00:41:09;;;;;;;5.43;4.03;;;;;;;19.89;83.54;97215.41;5015520;28;20179;-68
2022/05/20 00:43:41;;;;;;;7.40;4.00;;;;;;;19.87;83.85;97212.22;5015024;28;20184;-68
2022/05/20 00:46:15;;;;;;;4.53;4.00;;;;;;;19.90;83.51;97222.31;5015967;28;20593;-67
2022/05/20 00:48:41;;;;;;;4.82;3.90;;;;;;;19.93;83.35;97213.78;4997687;28;20199;-70
2022/05/20 00:51:11;;;;;;;4.30;3.90;;;;;;;19.91;83.44;97211.41;5015258;28;20183;-68
2022/05/20 00:53:56;;;;;;;4.93;3.83;;;;;;;19.82;84.28;97212.25;5015455;28;20171;-67
2022/05/20 00:56:26;;;;;;;4.78;4.05;;;;;;;19.72;84.78;97205.16;5014835;28;20650;-68
2022/05/20 00:58:53;;;;;;;4.75;4.35;;;;;;;19.79;84.65;97197.63;5015366;28;20684;-68
2022/05/20 01:01:19;;;;;;;6.10;4.68;;;;;;;19.75;84.78;97191.28;5015390;28;20644;-68
2022/05/20 01:03:47;;;;;;;4.90;4.40;;;;;;;19.77;84.71;97193.66;5015288;28;20270;-68
2022/05/20 01:06:13;;;;;;;4.45;4.05;;;;;;;19.82;84.45;97201.63;5029846;28;20214;-68
2022/05/20 01:08:40;;;;;;;4.93;4.25;;;;;;;19.78;84.60;97200.59;5015058;28;20218;-69
2022/05/20 01:11:06;;;;;;;5.25;4.10;;;;;;;19.69;85.06;97204.88;4983028;28;20695;-68
2022/05/20 01:13:33;;;;;;;7.10;4.63;;;;;;;19.80;84.80;97193.91;5015057;28;20182;-68
2022/05/20 01:16:02;;;;;;;7.32;4.40;;;;;;;19.75;85.02;97193.13;5015126;28;20183;-69
2022/05/20 01:18:31;;;;;;;7.50;4.68;;;;;;;19.82;84.71;97188.31;5014793;28;20226;-69
2022/05/20 01:20:57;;;;;;;5.03;4.47;;;;;;;19.67;85.79;97199.81;5013932;28;20196;-69
2022/05/20 01:23:25;;;;;;;4.65;4.25;;;;;;;19.66;85.95;97197.47;4996723;28;20257;-69
2022/05/20 01:25:53;;;;;;;4.35;3.97;;;;;;;19.75;85.17;97193.94;5005112;28;20244;-68
2022/05/20 01:28:21;;;;;;;5.13;4.25;;;;;;;19.75;85.25;97198.47;5014456;28;20239;-68
2022/05/20 01:30:51;;;;;;;5.13;4.63;;;;;;;19.69;85.47;97205.69;5014431;28;20191;-68
2022/05/20 01:33:22;;;;;;;6.40;4.43;;;;;;;19.62;86.13;97199.84;5015601;28;20188;-68
2022/05/20 01:35:47;;;;;;;6.13;3.92;;;;;;;19.58;86.34;97198.81;5014172;28;20534;-68
2022/05/20 01:38:12;;;;;;;4.43;4.03;;;;;;;19.65;86.10;97198.53;5014532;28;20203;-67
2022/05/20 01:40:48;;;;;;;5.22;4.50;;;;;;;19.58;86.36;97196.16;5014709;28;20194;-67
2022/05/20 01:43:18;;;;;;;7.85;4.45;;;;;;;19.58;86.31;97193.50;5014283;28;20269;-68
2022/05/20 01:45:53;;;;;;;6.78;4.90;;;;;;;19.27;88.29;97190.16;5013816;28;20176;-67
2022/05/20 01:48:28;;;;;;;5.10;4.50;;;;;;;19.47;87.27;97192.75;5014002;28;20210;-68
2022/05/20 01:50:55;;;;;;;5.38;4.35;;;;;;;19.40;87.68;97184.25;5014289;28;20197;-68
2022/05/20 01:53:28;;;;;;;5.93;5.32;;;;;;;19.55;86.65;97187.94;5013315;28;20207;-68
2022/05/20 01:56:10;;;;;;;5.75;5.10;;;;;;;19.40;87.56;97178.91;5014070;28;20182;-68
2022/05/20 01:58:50;;;;;;;6.20;5.03;;;;;;;19.45;87.37;97183.44;5013912;28;20179;-68
2022/05/20 02:01:23;;;;;;;9.20;4.45;;;;;;;19.47;87.07;97181.31;5013667;28;20183;-67
2022/05/20 02:03:54;;;;;;;10.77;4.82;;;;;;;19.24;88.29;97172.09;5013996;28;20542;-67
2022/05/20 02:06:25;;;;;;;6.18;4.63;;;;;;;19.37;87.70;97168.84;5013922;28;20577;-68
2022/05/20 02:09:08;;;;;;;5.32;4.82;;;;;;;19.29;88.49;97173.91;5013963;28;20184;-68
2022/05/20 02:11:40;;;;;;;5.70;4.78;;;;;;;19.18;88.96;97175.03;5013887;28;20286;-68
2022/05/20 02:14:38;;;;;;;5.30;4.80;;;;;;;19.12;89.43;97163.63;5013963;28;20175;-68
2022/05/20 02:17:09;;;;;;;6.68;4.78;;;;;;;19.19;88.78;97171.31;4995706;28;20287;-69
2022/05/20 02:19:52;;;;;;;6.45;4.78;;;;;;;19.28;88.28;97177.66;5013331;28;20314;-69
2022/05/20 02:22:22;;;;;;;5.55;5.03;;;;;;;19.29;88.39;97172.06;5013358;28;20654;-69
2022/05/20 02:24:49;;;;;;;5.25;4.68;;;;;;;19.08;89.42;97175.88;5008137;28;20191;-71
2022/05/20 02:27:22;;;;;;;6.57;4.78;;;;;;;18.94;90.82;97186.28;5013233;28;20314;-68
2022/05/20 02:29:54;;;;;;;5.68;5.05;;;;;;;19.11;89.51;97180.66;5013194;28;20183;-69
2022/05/20 02:32:31;;;;;;;6.78;5.20;;;;;;;19.05;89.90;97189.72;5013465;28;20207;-68
2022/05/20 02:34:57;;;;;;;5.40;4.90;;;;;;;18.94;90.91;97193.47;5013225;28;20183;-68
2022/05/20 02:37:31;;;;;;;7.75;6.05;;;;;;;18.93;91.19;97191.84;4995711;28;20184;-68
2022/05/20 02:39:57;;;;;;;8.90;5.50;;;;;;;18.83;92.26;97194.53;5012965;28;20185;-68
2022/05/20 02:42:23;;;;;;;7.63;5.65;;;;;;;18.87;92.05;97190.28;5013285;28;20528;-69
2022/05/20 02:44:49;;;;;;;5.87;5.13;;;;;;;18.88;91.78;97190.00;5013233;28;20274;-68
2022/05/20 02:47:14;;;;;;;5.77;5.17;;;;;;;18.86;92.10;97196.66;5013259;28;20194;-68
2022/05/20 02:49:40;;;;;;;5.37;4.87;;;;;;;18.79;92.38;97188.94;5013317;28;20640;-68
2022/05/20 02:52:07;;;;;;;5.67;5.17;;;;;;;18.94;91.98;97196.13;5012959;28;20273;-68
2022/05/20 02:54:33;;;;;;;6.50;5.88;;;;;;;18.94;91.76;97199.56;5013238;28;20714;-69
2022/05/20 02:56:58;;;;;;;6.72;5.43;;;;;;;18.95;91.67;97192.38;5012886;28;20273;-68
2022/05/20 03:04:51;;;;;;;7.22;5.47;;;;;;;18.67;93.35;97183.13;5012465;28;20623;-68
2022/05/20 03:07:17;;;;;;;5.68;5.13;;;;;;;18.85;92.23;97185.22;5013014;28;20195;-68
2022/05/20 03:09:42;;;;;;;5.50;5.00;;;;;;;18.78;92.49;97183.94;5012784;28;20187;-69
2022/05/20 03:12:08;;;;;;;5.88;5.03;;;;;;;18.89;91.97;97180.97;5012400;28;20204;-69
2022/05/20 03:14:34;;;;;;;5.93;5.28;;;;;;;18.85;91.80;97193.19;5012783;28;20183;-68
2022/05/20 03:17:01;;;;;;;6.88;5.50;;;;;;;18.97;91.21;97188.38;5012486;28;20187;-68
2022/05/20 03:19:33;;;;;;;5.30;4.80;;;;;;;18.85;91.62;97192.41;5013208;28;20227;-68
2022/05/20 03:22:03;;;;;;;9.45;5.07;;;;;;;18.92;91.39;97190.25;5027776;28;20722;-69
2022/05/20 03:24:29;;;;;;;6.45;5.05;;;;;;;18.99;90.85;97180.16;5004434;28;20195;-68
2022/05/20 03:26:55;;;;;;;5.90;4.95;;;;;;;18.93;91.50;97186.53;4994843;28;20183;-69
2022/05/20 03:29:21;;;;;;;6.72;5.05;;;;;;;18.93;91.20;97184.69;5012451;28;20206;-68
2022/05/20 03:31:47;;;;;;;6.32;4.53;;;;;;;18.92;91.31;97193.72;5012775;28;20201;-68
2022/05/20 03:34:12;;;;;;;6.72;5.20;;;;;;;19.06;90.85;97183.31;5012690;28;20651;-68
2022/05/20 03:36:43;;;;;;;10.68;6.32;;;;;;;19.14;89.92;97180.09;5012603;28;20195;-69
2022/05/20 03:39:12;;;;;;;6.93;5.63;;;;;;;19.15;89.98;97183.56;5012382;28;20490;-68
2022/05/20 03:41:39;;;;;;;6.35;5.45;;;;;;;19.09;90.95;97188.88;5012514;28;20179;-68
2022/05/20 03:44:06;;;;;;;11.45;5.05;;;;;;;19.01;91.28;97186.78;5012396;28;20192;-68
2022/05/20 03:46:32;;;;;;;6.95;6.10;;;;;;;19.07;90.82;97190.22;5011684;28;20183;-69
2022/05/20 03:49:00;;;;;;;5.70;5.20;;;;;;;19.08;90.33;97187.28;5012853;28;20187;-68
2022/05/20 03:51:26;;;;;;;7.53;5.20;;;;;;;19.24;89.42;97182.72;5012708;28;20354;-68
2022/05/20 03:53:52;;;;;;;5.43;4.95;;;;;;;19.38;88.02;97185.59;5012588;28;20191;-68
2022/05/20 03:56:17;;;;;;;7.43;5.20;;;;;;;19.43;87.24;97177.59;5012369;28;20190;-69
2022/05/20 03:58:42;;;;;;;9.05;5.22;;;;;;;19.33;87.08;97181.09;5012543;28;20187;-69
2022/05/20 04:03:55;;;;;;;8.55;5.30;;;;;;;19.62;85.18;97178.56;5012386;28;20195;-68
2022/05/20 04:06:21;;;;;;;5.53;5.03;;;;;;;19.59;84.86;97187.13;5011928;28;20187;-69
2022/05/20 04:08:46;;;;;;;5.80;4.63;;;;;;;19.62;84.93;97188.41;5012347;28;20262;-69
2022/05/20 04:11:12;;;;;;;6.80;4.53;;;;;;;19.72;84.19;97185.72;5012059;28;20199;-70
2022/05/20 04:13:42;;;;;;;6.53;4.95;;;;;;;19.84;83.77;97186.97;5012174;28;20686;-68
2022/05/20 04:16:09;;;;;;;5.93;4.97;;;;;;;19.81;83.90;97182.19;5012326;28;20649;-68
2022/05/20 04:18:35;;;;;;;8.60;4.80;;;;;;;19.80;84.58;97180.59;5015406;28;20310;-68
2022/05/20 04:21:01;;;;;;;5.00;4.53;;;;;;;19.88;84.07;97181.91;5015821;28;20314;-69
2022/05/20 04:23:27;;;;;;;6.07;4.80;;;;;;;19.84;84.03;97178.97;5010490;28;20215;-68
2022/05/20 04:25:52;;;;;;;8.10;4.75;;;;;;;19.81;83.32;97176.09;5015138;28;20207;-68
2022/05/20 04:28:18;;;;;;;7.63;5.07;;;;;;;19.92;82.08;97180.28;5016089;28;20248;-68
2022/05/20 04:30:44;;;;;;;5.30;4.80;;;;;;;19.84;82.94;97178.19;5015601;28;20194;-68
2022/05/20 04:33:09;;;;;;;5.93;4.78;;;;;;;19.74;83.01;97178.25;5015887;28;20249;-69
2022/05/20 04:35:35;;;;;;;5.57;4.90;;;;;;;19.85;82.22;97174.44;5015400;28;20217;-69
2022/05/20 04:38:01;;;;;;;6.30;4.63;;;;;;;19.75;81.67;97170.00;4998355;28;20258;-68
2022/05/20 04:40:26;;;;;;;6.93;4.78;;;;;;;19.88;81.01;97172.06;5015498;28;20241;-68
2022/05/20 04:48:23;;;;;;;5.35;4.20;;;;;;;19.99;78.90;97175.44;5015769;28;20191;-68
2022/05/20 04:50:48;;;;;;;4.40;4.00;;;;;;;20.16;77.80;97181.16;4997333;28;20199;-69
2022/05/20 04:54:49;;;;;;;5.00;4.50;;;;;;;20.30;77.53;97182.13;5015247;28;20238;-68
2022/05/20 04:55:59;;;;;;;5.88;3.90;;;;;;;20.50;75.46;97172.41;5014624;28;20199;-68
2022/05/20 04:58:25;;;;;;;4.40;3.72;;;;;;;20.77;74.18;97171.88;5014869;28;20253;-69
2022/05/20 05:00:51;;;;;;;3.42;3.13;;;;;;;21.06;72.84;97177.97;5015174;28;20245;-68
2022/05/20 05:03:16;;;;;;;4.63;3.45;;;;;;;21.28;71.13;97186.28;5014747;28;20799;-69
2022/05/20 05:05:41;;;;;;;10.77;3.85;;;;;;;21.35;70.60;97176.03;5014841;28;20277;-69
2022/05/20 05:08:07;;;;;;;4.63;3.70;;;;;;;21.64;69.34;97178.59;5014958;28;20186;-69
2022/05/20 05:10:33;;;;;;;4.38;3.42;;;;;;;21.85;68.44;97171.88;5015197;28;20187;-70
2022/05/20 05:12:59;;;;;;;4.00;3.67;;;;;;;21.94;67.84;97182.72;5014465;28;20517;-69
2022/05/20 05:15:25;;;;;;;6.68;3.92;;;;;;;21.96;67.67;97186.72;5014588;28;20190;-69
2022/05/20 05:20:34;;;;;;;4.43;3.53;;;;;;;22.23;67.07;97186.06;5014849;28;20191;-69
2022/05/20 05:23:01;;;;;;;7.47;3.83;;;;;;;22.34;66.35;97187.47;5005314;28;20187;-69
2022/05/20 05:25:32;;;;;;;10.13;3.75;;;;;;;22.54;65.09;97193.56;5014149;28;20183;-69
2022/05/20 05:27:57;;;;;;;6.07;3.47;;;;;;;22.73;64.94;97191.66;5014409;28;20183;-70
2022/05/20 05:30:23;;;;;;;3.80;3.50;;;;;;;22.74;64.72;97187.88;5014266;28;20198;-70
2022/05/20 05:32:49;;;;;;;3.50;3.20;;;;;;;22.96;63.10;97190.69;5014481;28;20203;-70
2022/05/20 05:35:17;;;;;;;4.38;3.55;;;;;;;23.16;62.31;97187.66;5025799;28;20212;-70
2022/05/20 05:37:43;;;;;;;3.88;3.58;;;;;;;23.07;62.63;97194.00;5017977;28;20636;-72
2022/05/20 05:40:13;;;;;;;5.20;3.45;;;;;;;22.87;63.41;97194.34;5014567;28;20192;-71
2022/05/20 05:42:40;;;;;;;4.93;3.42;;;;;;;22.89;63.87;97184.97;5014226;28;20187;-70
2022/05/20 05:45:07;;;;;;;4.40;3.65;;;;;;;23.30;62.68;97195.66;5014207;28;20179;-71
2022/05/20 05:47:32;;;;;;;5.32;3.90;;;;;;;23.48;62.52;97194.00;5014163;28;20648;-70
2022/05/20 05:49:58;;;;;;;8.15;3.72;;;;;;;23.49;62.44;97196.38;5014577;28;20226;-70
2022/05/20 05:52:23;;;;;;;6.78;4.00;;;;;;;23.81;61.72;97190.06;5014195;28;20253;-70
2022/05/20 05:54:49;;;;;;;4.22;3.75;;;;;;;23.84;61.73;97192.16;5013967;28;20180;-71
2022/05/20 05:57:14;;;;;;;5.82;3.83;;;;;;;23.75;62.12;97185.13;5014010;28;20182;-71
2022/05/20 05:59:40;;;;;;;5.90;3.78;;;;;;;24.07;60.81;97189.50;4996978;28;20513;-70
2022/05/20 06:02:08;;;;;;;5.35;3.70;;;;;;;24.15;60.60;97186.88;5013794;28;20243;-70
2022/05/20 06:04:34;;;;;;;4.22;3.92;;;;;;;24.20;59.93;97188.69;5014149;28;20187;-70
2022/05/20 06:06:59;;;;;;;7.35;3.88;;;;;;;24.17;60.72;97182.03;5013658;28;20191;-70
2022/05/20 06:09:25;;;;;;;9.27;3.65;;;;;;;24.46;59.75;97188.88;5013737;28;20187;-70
2022/05/20 06:11:50;;;;;;;4.15;3.75;;;;;;;24.50;59.75;97187.97;5013882;28;20302;-70
2022/05/20 06:14:16;;;;;;;3.78;3.42;;;;;;;24.80;58.39;97187.16;5013360;28;20206;-70
2022/05/20 06:16:42;;;;;;;3.85;3.55;;;;;;;24.75;58.97;97197.22;4995762;28;20184;-71
2022/05/20 06:19:09;;;;;;;5.05;3.95;;;;;;;24.85;59.03;97189.72;4981860;28;20231;-70
2022/05/20 06:21:34;;;;;;;5.88;3.60;;;;;;;25.02;58.19;97183.66;5009218;28;20280;-69
2022/05/20 06:24:01;;;;;;;4.40;3.25;;;;;;;25.24;57.70;97186.28;5004135;28;20577;-70
2022/05/20 06:26:30;;;;;;;6.28;3.42;;;;;;;25.20;57.02;97189.88;4995642;28;20188;-69
2022/05/20 06:28:55;;;;;;;9.52;3.70;;;;;;;25.42;56.12;97189.00;5013005;28;20187;-70
2022/05/20 06:31:21;;;;;;;5.70;3.88;;;;;;;25.44;56.21;97187.59;5013109;28;20647;-69
2022/05/20 06:33:46;;;;;;;3.80;3.30;;;;;;;25.60;55.02;97188.78;5012812;28;20757;-69
2022/05/20 06:41:40;;;;;;;8.40;3.85;;;;;;;26.12;54.68;97188.03;5012353;28;20190;-69
2022/05/20 06:44:06;;;;;;;3.83;3.13;;;;;;;25.92;54.88;97181.38;5012671;28;20187;-68
2022/05/20 06:46:31;;;;;;;4.10;3.70;;;;;;;26.03;54.92;97191.50;5013186;28;20647;-69
2022/05/20 06:48:57;;;;;;;7.85;3.42;;;;;;;26.22;53.82;97183.13;5012973;28;20186;-68
2022/05/20 06:51:28;;;;;;;8.57;3.58;;;;;;;26.05;54.43;97186.59;5010723;28;20632;-69
2022/05/20 06:53:55;;;;;;;5.05;3.75;;;;;;;26.24;54.10;97191.69;5012144;28;20589;-70
2022/05/20 06:56:24;;;;;;;13.82;3.17;;;;;;;26.40;54.52;97192.00;5011902;28;20183;-70
2022/05/20 06:58:50;;;;;;;3.88;3.08;;;;;;;26.50;54.43;97197.03;5006034;28;20667;-69
2022/05/20 07:01:15;;;;;;;4.60;3.40;;;;;;;26.00;53.80;97192.13;4999887;28;20652;-70
2022/05/20 07:03:41;;;;;;;4.22;3.13;;;;;;;25.93;53.16;97185.66;5012672;28;20187;-70
2022/05/20 07:06:07;;;;;;;5.85;3.30;;;;;;;25.71;53.33;97194.63;4995070;28;20536;-70
2022/05/20 07:08:34;;;;;;;6.82;3.25;;;;;;;25.63;53.96;97190.06;5012391;28;20179;-70
2022/05/20 07:11:02;;;;;;;3.75;3.45;;;;;;;26.09;53.39;97189.44;5012438;28;20199;-71
2022/05/20 07:13:31;;;;;;;5.53;3.65;;;;;;;26.22;53.15;97187.72;5012575;28;20209;-70
2022/05/20 07:15:57;;;;;;;5.85;3.03;;;;;;;26.37;52.61;97192.63;5012380;28;20183;-71
2022/05/20 07:18:24;;;;;;;6.60;3.60;;;;;;;26.40;51.85;97192.78;5008784;28;20230;-71
2022/05/20 07:20:49;;;;;;;8.55;3.55;;;;;;;26.69;51.36;97200.19;5009224;28;20223;-72
2022/05/20 07:23:14;;;;;;;10.77;4.53;;;;;;;26.72;51.17;97188.75;5005701;28;20214;-71
2022/05/20 07:25:40;;;;;;;3.72;3.42;;;;;;;26.68;51.13;97195.09;5011522;28;20195;-71
2022/05/20 07:28:05;;;;;;;4.80;3.20;;;;;;;26.89;50.42;97186.06;5011962;28;20183;-71
2022/05/20 07:30:31;;;;;;;6.35;3.22;;;;;;;27.02;50.66;97181.59;5012881;28;20183;-71
2022/05/20 07:32:57;;;;;;;7.07;3.03;;;;;;;26.96;49.80;97190.94;5011959;28;20203;-71
2022/05/20 07:35:22;;;;;;;4.68;3.33;;;;;;;27.28;49.00;97179.56;5012790;28;20184;-71
2022/05/20 07:37:50;;;;;;;8.82;4.00;;;;;;;27.34;48.98;97182.06;4994631;28;20191;-72
2022/05/20 07:40:16;;;;;;;5.40;3.25;;;;;;;27.55;48.86;97181.00;5012794;28;20187;-71
2022/05/20 07:42:41;;;;;;;5.25;3.13;;;;;;;27.68;48.16;97181.88;5012591;28;20217;-71
2022/05/20 07:45:07;;;;;;;6.50;3.60;;;;;;;27.78;48.45;97173.41;5012377;28;20187;-72
2022/05/20 07:47:32;;;;;;;4.82;3.30;;;;;;;27.96;48.27;97168.69;5003700;28;20245;-71
2022/05/20 07:49:58;;;;;;;5.90;3.40;;;;;;;27.92;47.29;97165.84;5011881;28;20248;-71
2022/05/20 07:55:09;;;;;;;3.50;3.30;;;;;;;27.80;47.15;97165.00;5016525;28;20194;-71
2022/05/20 07:57:37;;;;;;;3.45;3.05;;;;;;;28.05;47.63;97167.50;5015651;28;20623;-71
2022/05/20 08:00:05;;;;;;;4.18;3.60;;;;;;;28.30;46.45;97173.03;5010458;28;20186;-71
2022/05/20 08:02:30;;;;;;;4.80;3.30;;;;;;;28.13;46.60;97171.28;4997183;28;20204;-71
2022/05/20 08:04:58;;;;;;;7.55;3.35;;;;;;;28.30;46.29;97173.81;4996915;28;20637;-72
2022/05/20 08:07:50;;;;;;;7.50;3.08;;;;;;;28.44;45.55;97165.44;5000312;28;20183;-71
2022/05/20 08:10:24;;;;;;;4.45;2.92;;;;;;;28.38;45.69;97172.94;5013359;28;20566;-71
2022/05/20 08:12:50;;;;;;;4.22;2.78;;;;;;;28.36;45.16;97169.00;5016336;28;20199;-71
2022/05/20 08:15:16;;;;;;;4.80;2.97;;;;;;;28.40;44.72;97167.22;5015477;28;20651;-72
2022/05/20 08:17:43;;;;;;;5.13;3.13;;;;;;;28.26;45.44;97159.41;5015006;28;20187;-71
2022/05/20 08:20:22;;;;;;;4.05;3.65;;;;;;;28.25;46.01;97160.56;5015899;28;20198;-71
2022/05/20 08:22:48;;;;;;;7.55;3.00;;;;;;;28.50;45.70;97156.00;5011376;28;20607;-71
2022/05/20 08:25:14;;;;;;;3.45;3.15;;;;;;;28.56;45.67;97154.69;5012165;28;20671;-71
2022/05/20 08:27:40;;;;;;;4.75;3.47;;;;;;;28.73;44.90;97157.22;5015557;28;20194;-73
2022/05/20 08:30:13;;;;;;;3.58;3.03;;;;;;;28.68;43.98;97149.31;5015716;28;20191;-72
2022/05/20 08:32:39;;;;;;;3.38;2.78;;;;;;;28.77;44.59;97150.03;5016015;28;20599;-71
2022/05/20 08:35:05;;;;;;;3.00;2.80;;;;;;;28.88;44.03;97145.75;5029435;28;20187;-71
2022/05/20 08:37:31;;;;;;;5.18;3.15;;;;;;;28.77;43.67;97141.13;5015214;28;20714;-71
2022/05/20 08:39:56;;;;;;;4.07;3.13;;;;;;;29.06;42.94;97140.16;4998214;28;20184;-71
2022/05/20 08:42:27;;;;;;;3.90;3.00;;;;;;;29.05;43.20;97131.25;5015407;28;20659;-71
2022/05/20 08:44:53;;;;;;;7.40;3.90;;;;;;;29.32;42.86;97132.50;5030280;28;20191;-71
2022/05/20 08:47:24;;;;;;;5.18;3.90;;;;;;;28.94;43.30;97133.63;5015583;28;20194;-71
2022/05/20 08:49:53;;;;;;;3.75;3.45;;;;;;;29.08;43.33;97136.00;5014739;28;20191;-72
2022/05/20 08:52:19;;;;;;;4.65;3.40;;;;;;;29.34;43.81;97132.97;5015307;28;20222;-71
2022/05/20 08:54:45;;;;;;;3.95;3.00;;;;;;;29.33;42.59;97129.47;5015442;28;20187;-71
2022/05/20 08:57:25;;;;;;;5.10;3.50;;;;;;;29.29;43.48;97133.97;5015294;28;20188;-72
2022/05/20 08:59:51;;;;;;;5.45;3.40;;;;;;;29.56;42.08;97129.78;5014590;28;20171;-71
2022/05/20 09:02:17;;;;;;;5.50;3.38;;;;;;;29.58;41.20;97132.16;5014869;28;20183;-71
2022/05/20 09:04:43;;;;;;;4.82;3.58;;;;;;;29.71;41.93;97117.47;5014020;28;20628;-72
2022/05/20 09:07:11;;;;;;;7.78;3.92;;;;;;;29.87;42.08;97118.31;5014961;28;20233;-73
2022/05/20 09:09:56;;;;;;;7.78;4.38;;;;;;;29.65;40.19;97114.22;5014565;28;20241;-72
2022/05/20 09:12:31;;;;;;;4.15;3.78;;;;;;;29.85;40.66;97109.00;5014690;28;20207;-71
2022/05/20 09:17:44;;;;;;;6.40;4.85;;;;;;;30.19;40.00;97110.34;5014303;28;20728;-72
2022/05/20 09:20:14;;;;;;;5.25;4.75;;;;;;;30.17;39.34;97105.28;5010707;28;20637;-71
2022/05/20 09:22:40;;;;;;;7.45;5.40;;;;;;;29.88;39.76;97102.88;5010357;28;20188;-71
2022/05/20 09:25:18;;;;;;;4.78;4.25;;;;;;;30.09;38.63;97103.53;5007548;28;20175;-71
2022/05/20 09:27:43;;;;;;;6.35;3.47;;;;;;;30.19;38.50;97104.94;5014651;28;20179;-72
2022/05/20 09:30:13;;;;;;;6.88;4.85;;;;;;;29.95;38.72;97105.81;5014542;28;20198;-71
2022/05/20 09:32:43;;;;;;;11.40;4.95;;;;;;;29.65;38.72;97098.00;5014383;28;20702;-71
2022/05/20 09:35:18;;;;;;;5.22;4.82;;;;;;;30.01;38.43;97096.34;5014274;28;20273;-71
2022/05/20 09:37:45;;;;;;;6.22;4.90;;;;;;;29.95;38.14;97082.28;5014080;28;20195;-73
2022/05/20 09:40:41;;;;;;;6.07;5.13;;;;;;;30.00;38.80;97071.22;5014706;28;20247;-71
2022/05/20 09:43:25;;;;;;;6.63;5.55;;;;;;;29.91;37.77;97073.31;4998174;28;20184;-71
2022/05/20 09:45:51;;;;;;;5.30;4.80;;;;;;;29.57;38.35;97068.44;5013801;28;20262;-71
2022/05/20 09:48:36;;;;;;;6.13;4.32;;;;;;;29.60;38.17;97073.13;5014379;28;20270;-72
2022/05/20 09:51:24;;;;;;;6.03;4.95;;;;;;;29.22;38.83;97058.13;5013462;28;20175;-72
2022/05/20 09:54:19;;;;;;;5.15;4.57;;;;;;;29.29;38.86;97063.75;5013641;28;20206;-74
2022/05/20 09:56:56;;;;;;;5.28;4.80;;;;;;;29.33;37.72;97061.16;5013998;28;20222;-72
2022/05/20 09:59:48;;;;;;;4.22;3.83;;;;;;;29.30;38.48;97051.03;5017667;28;20592;-71
2022/05/20 10:02:43;;;;;;;8.48;4.60;;;;;;;29.40;39.12;97057.91;5014005;28;20175;-72
2022/05/20 10:05:30;;;;;;;7.05;4.43;;;;;;;29.27;39.06;97060.59;5011483;28;20200;-72
2022/05/20 10:08:02;;;;;;;7.72;4.45;;;;;;;29.45;39.62;97058.44;5013441;28;20547;-71
2022/05/20 10:10:42;;;;;;;4.80;4.00;;;;;;;29.49;38.38;97050.44;5012798;28;20183;-73
2022/05/20 10:13:19;;;;;;;6.93;4.20;;;;;;;29.54;38.23;97040.16;5014162;28;20264;-73
2022/05/20 10:15:49;;;;;;;5.03;4.55;;;;;;;29.69;38.61;97041.38;5012737;28;20285;-72
2022/05/20 10:18:47;;;;;;;7.93;5.25;;;;;;;29.46;39.01;97021.41;5013224;28;20227;-72
2022/05/20 10:21:49;;;;;;;4.72;4.28;;;;;;;29.38;38.68;97023.13;5003137;28;20206;-73
2022/05/20 10:24:28;;;;;;;5.65;4.70;;;;;;;29.39;39.35;97022.00;5013255;28;20225;-73
2022/05/20 10:27:01;;;;;;;8.07;4.72;;;;;;;29.45;38.10;97014.44;5012680;28;20194;-73
2022/05/20 10:32:57;;;;;;;5.60;5.13;;;;;;;29.59;36.39;97012.91;5024116;28;20225;-72
2022/05/20 10:35:26;;;;;;;6.53;5.75;;;;;;;29.68;36.69;97010.06;5013134;28;20270;-72
2022/05/20 10:38:13;;;;;;;5.53;4.93;;;;;;;29.72;37.15;97009.03;5012713;28;20620;-73
2022/05/20 10:40:59;;;;;;;14.93;5.63;;;;;;;29.88;35.36;97010.97;4995506;28;20187;-72
2022/05/20 10:49:18;;;;;;;6.03;5.43;;;;;;;30.12;33.55;97000.84;5013218;28;20577;-72
2022/05/20 10:51:43;;;;;;;7.55;5.53;;;;;;;30.17;33.88;97007.91;5009460;28;20239;-72
2022/05/20 10:54:35;;;;;;;6.80;5.30;;;;;;;30.33;34.08;96997.88;5012882;28;20215;-72
2022/05/20 10:57:42;;;;;;;7.72;5.88;;;;;;;30.21;33.08;96995.25;5012575;28;20581;-72
2022/05/20 11:00:08;;;;;;;7.30;4.93;;;;;;;30.18;33.05;96987.84;5025294;28;20195;-72
2022/05/20 11:02:51;;;;;;;8.52;5.30;;;;;;;30.19;33.46;96980.53;5012968;28;20202;-72
2022/05/20 11:05:17;;;;;;;10.00;5.63;;;;;;;30.29;34.12;96982.72;5013474;28;20176;-72
2022/05/20 11:07:42;;;;;;;6.60;4.90;;;;;;;30.11;34.50;96988.47;5012608;28;20187;-72
2022/05/20 11:10:24;;;;;;;5.32;4.88;;;;;;;30.14;33.47;96976.97;5013000;28;20183;-72
2022/05/20 11:13:24;;;;;;;8.88;6.47;;;;;;;30.28;34.45;96965.69;4995333;28;20199;-72
2022/05/20 11:16:08;;;;;;;9.10;4.32;;;;;;;30.34;33.63;96967.00;5013088;28;20238;-73
2022/05/20 11:19:18;;;;;;;9.90;4.38;;;;;;;30.33;32.49;96964.63;5009342;28;20620;-72
2022/05/20 11:22:24;;;;;;;6.45;4.10;;;;;;;30.38;32.78;96945.44;4943015;29;20197;-73
2022/05/20 11:25:10;;;;;;;6.75;4.25;;;;;;;30.47;32.98;96933.34;4983224;28;20231;-72
2022/05/20 11:27:53;;;;;;;4.53;3.90;;;;;;;30.60;32.71;96930.50;5010366;28;20586;-72
2022/05/20 11:30:31;;;;;;;7.88;4.70;;;;;;;30.65;32.84;96931.00;5003441;28;20176;-72
2022/05/20 11:33:15;;;;;;;6.10;4.20;;;;;;;30.74;33.59;96912.66;5015138;28;20198;-72
2022/05/20 11:36:10;;;;;;;7.65;4.20;;;;;;;30.84;33.62;96908.63;5006892;28;20226;-72
2022/05/20 11:39:13;;;;;;;6.45;3.80;;;;;;;31.08;32.68;96896.75;5016520;28;20651;-72
2022/05/20 11:41:56;;;;;;;8.77;4.00;;;;;;;30.73;33.75;96877.81;5016723;28;20228;-72
2022/05/20 11:44:53;;;;;;;4.10;3.70;;;;;;;30.75;33.08;96872.84;5004905;28;20176;-73
2022/05/20 11:47:37;;;;;;;6.85;4.25;;;;;;;30.83;33.16;96864.50;5016349;28;20574;-71
2022/05/20 11:50:34;;;;;;;7.15;3.75;;;;;;;31.02;32.50;96849.41;5016505;28;20191;-71
2022/05/20 11:53:08;;;;;;;6.03;4.13;;;;;;;30.93;32.85;96844.97;5015909;28;20203;-74
2022/05/20 11:55:58;;;;;;;4.03;3.50;;;;;;;31.10;32.23;96843.78;5016102;28;20179;-73
2022/05/20 11:58:41;;;;;;;4.35;3.85;;;;;;;30.92;32.95;96832.59;5026231;28;20176;-70
2022/05/20 12:01:08;;;;;;;5.50;3.35;;;;;;;31.14;32.24;96841.97;5008254;28;20257;-72
2022/05/20 12:06:24;;;;;;;4.90;3.55;;;;;;;31.28;32.19;96846.84;5015993;28;20190;-72
2022/05/20 12:08:53;;;;;;;4.55;3.30;;;;;;;31.36;31.75;96833.06;5012086;28;20248;-72
2022/05/20 12:11:26;;;;;;;7.85;3.40;;;;;;;31.39;31.99;96824.22;5004276;28;20183;-72
2022/05/20 12:14:00;;;;;;;4.32;3.08;;;;;;;31.43;31.54;96815.38;5015592;28;20180;-72
2022/05/20 12:16:26;;;;;;;6.63;3.30;;;;;;;31.28;31.63;96806.97;5015920;28;20187;-72
2022/05/20 12:24:41;;;;;;;4.13;2.97;;;;;;;31.30;31.70;96788.47;5015531;28;20567;-71
2022/05/20 12:27:23;;;;;;;4.80;3.13;;;;;;;31.19;31.63;96786.69;5005382;28;20185;-73
2022/05/20 12:30:00;;;;;;;6.28;3.22;;;;;;;31.15;31.24;96778.53;5007450;28;20377;-72
2022/05/20 12:32:27;;;;;;;6.53;3.08;;;;;;;31.09;31.17;96773.75;4998141;28;20199;-72
2022/05/20 12:35:13;;;;;;;3.97;2.53;;;;;;;31.15;32.10;96769.63;5013944;28;20207;-72
2022/05/20 12:37:44;;;;;;;6.47;3.05;;;;;;;31.09;31.35;96771.84;5014243;28;20179;-74